Time,TemperatureF,DewpointF,PressureIn,WindDirection,WindDirectionDegrees,WindSpeedMPH,WindSpeedGustMPH,Humidity,HourlyPrecipIn,Conditions,Clouds,dailyrainin,SoftwareType,DateUTC
2013-03-15 10:18:00,-999.9,-99.9,30.37,North,32767,-999.0,5.0,255,-99.99,,,0.00,Wunderground v.1.13,2013-03-15 14:18:00,
2013-03-15 10:24:00,44.6,30.7,30.36,SSW,196,0.0,5.0,58,0.00,,,0.00,Wunderground v.1.13,2013-03-15 14:24:00,
2013-03-15 10:40:00,46.0,30.7,30.36,ENE,62,0.0,0.0,55,0.00,,,0.00,Wunderground v.1.13,2013-03-15 14:40:00,
2013-03-15 12:07:00,54.9,34.5,30.35,West,268,0.0,0.0,46,0.00,,,0.00,Wunderground v.1.13,2013-03-15 16:07:00,
2013-03-15 12:12:00,55.3,34.3,30.34,NNW,339,0.0,4.0,45,0.00,,,0.00,Wunderground v.1.13,2013-03-15 16:12:00,
2013-03-15 12:17:00,55.6,34.6,30.34,WNW,283,0.0,1.0,45,0.00,,,0.00,Wunderground v.1.13,2013-03-15 16:17:00,
2013-03-15 12:22:00,56.0,34.4,30.34,WNW,284,0.0,2.0,44,0.00,,,0.00,Wunderground v.1.13,2013-03-15 16:22:00,
2013-03-15 12:27:00,56.4,34.7,30.34,WNW,284,0.0,1.0,44,0.00,,,0.00,Wunderground v.1.13,2013-03-15 16:27:00,
2013-03-15 12:32:00,57.0,35.3,30.33,North,351,0.0,2.0,44,0.00,,,0.00,Wunderground v.1.13,2013-03-15 16:32:00,
2013-03-15 12:37:00,57.6,35.8,30.33,North,350,0.0,2.0,44,0.00,,,0.00,Wunderground v.1.13,2013-03-15 16:37:00,
2013-03-15 12:42:00,58.2,35.8,30.33,NNW,346,1.0,2.0,43,0.00,,,0.00,Wunderground v.1.13,2013-03-15 16:42:00,
2013-03-15 12:47:00,58.7,36.8,30.32,WNW,282,0.0,2.0,44,0.00,,,0.00,Wunderground v.1.13,2013-03-15 16:47:00,
2013-03-15 12:52:00,59.8,37.8,30.32,WNW,302,1.0,6.0,44,0.00,,,0.00,Wunderground v.1.13,2013-03-15 16:52:00,
2013-03-15 12:57:00,60.4,37.2,30.32,WNW,289,0.0,3.0,42,0.00,,,0.00,Wunderground v.1.13,2013-03-15 16:57:00,
2013-03-15 13:02:00,60.7,38.1,30.32,WSW,237,0.0,4.0,43,0.00,,,0.00,Wunderground v.1.13,2013-03-15 17:02:00,
2013-03-15 13:07:00,61.1,37.2,30.32,West,269,1.0,3.0,41,0.00,,,0.00,Wunderground v.1.13,2013-03-15 17:07:00,
2013-03-15 13:12:00,61.6,38.3,30.31,WSW,242,0.0,6.0,42,0.00,,,0.00,Wunderground v.1.13,2013-03-15 17:12:00,
2013-03-15 13:17:00,62.3,38.9,30.31,SW,229,2.0,8.0,42,0.00,,,0.00,Wunderground v.1.13,2013-03-15 17:17:00,
2013-03-15 13:22:00,62.2,38.8,30.31,WNW,283,1.0,5.0,42,0.00,,,0.00,Wunderground v.1.13,2013-03-15 17:22:00,
2013-03-15 13:28:00,62.7,38.6,30.30,WNW,302,1.0,4.0,41,0.00,,,0.00,Wunderground v.1.13,2013-03-15 17:28:00,
2013-03-15 13:32:00,63.0,38.9,30.30,WSW,247,4.0,5.0,41,0.00,,,0.00,Wunderground v.1.13,2013-03-15 17:32:00,
2013-03-15 13:38:00,63.0,38.9,30.30,WSW,258,0.0,4.0,41,0.00,,,0.00,Wunderground v.1.13,2013-03-15 17:38:00,
2013-03-15 13:43:00,62.8,39.4,30.30,WNW,299,1.0,8.0,42,0.00,,,0.00,Wunderground v.1.13,2013-03-15 17:43:00,
2013-03-15 13:48:00,62.9,38.8,30.30,WSW,248,3.0,7.0,41,0.00,,,0.00,Wunderground v.1.13,2013-03-15 17:48:00,
2013-03-15 13:53:00,63.1,39.6,30.29,West,277,1.0,6.0,42,0.00,,,0.00,Wunderground v.1.13,2013-03-15 17:53:00,
2013-03-15 13:58:00,63.5,39.4,30.29,WNW,282,3.0,6.0,41,0.00,,,0.00,Wunderground v.1.13,2013-03-15 17:58:00,
2013-03-15 14:03:00,63.8,39.6,30.29,South,190,9.0,9.0,41,0.00,,,0.00,Wunderground v.1.13,2013-03-15 18:03:00,
2013-03-15 14:08:00,64.4,40.2,30.29,WSW,239,6.0,11.0,41,0.00,,,0.00,Wunderground v.1.13,2013-03-15 18:08:00,
2013-03-15 14:13:00,64.1,39.3,30.29,SW,216,9.0,15.0,40,0.00,,,0.00,Wunderground v.1.13,2013-03-15 18:13:00,
2013-03-15 14:18:00,64.0,39.2,30.28,SW,224,5.0,9.0,40,0.00,,,0.00,Wunderground v.1.13,2013-03-15 18:18:00,
2013-03-15 14:23:00,64.1,39.3,30.28,NW,311,1.0,9.0,40,0.00,,,0.00,Wunderground v.1.13,2013-03-15 18:23:00,
2013-03-15 14:28:00,64.2,38.7,30.27,SE,124,1.0,13.0,39,0.00,,,0.00,Wunderground v.1.13,2013-03-15 18:28:00,
2013-03-15 14:33:00,64.7,38.5,30.28,WSW,249,13.0,13.0,38,0.00,,,0.00,Wunderground v.1.13,2013-03-15 18:33:00,
2013-03-15 14:38:00,64.8,38.6,30.27,West,277,6.0,8.0,38,0.00,,,0.00,Wunderground v.1.13,2013-03-15 18:38:00,
2013-03-15 14:43:00,65.2,38.9,30.26,WNW,292,2.0,10.0,38,0.00,,,0.00,Wunderground v.1.13,2013-03-15 18:43:00,
2013-03-15 14:48:00,65.6,37.9,30.26,WSW,247,9.0,13.0,36,0.00,,,0.00,Wunderground v.1.13,2013-03-15 18:48:00,
2013-03-15 14:53:00,65.7,39.4,30.26,WNW,300,5.0,12.0,38,0.00,,,0.00,Wunderground v.1.13,2013-03-15 18:53:00,
2013-03-15 14:58:00,65.6,38.6,30.25,SW,227,14.0,15.0,37,0.00,,,0.00,Wunderground v.1.13,2013-03-15 18:58:00,
2013-03-15 15:03:00,65.6,38.6,30.25,WSW,258,5.0,12.0,37,0.00,,,0.00,Wunderground v.1.13,2013-03-15 19:03:00,
2013-03-15 15:08:00,65.4,37.7,30.25,WSW,237,3.0,12.0,36,0.00,,,0.00,Wunderground v.1.13,2013-03-15 19:08:00,
2013-03-15 15:13:00,65.7,38.0,30.25,West,263,5.0,11.0,36,0.00,,,0.00,Wunderground v.1.13,2013-03-15 19:13:00,
2013-03-15 15:18:00,66.5,38.7,30.24,WSW,242,11.0,11.0,36,0.00,,,0.00,Wunderground v.1.13,2013-03-15 19:18:00,
2013-03-15 15:23:00,66.5,38.0,30.24,WSW,242,4.0,10.0,35,0.00,,,0.00,Wunderground v.1.13,2013-03-15 19:23:00,
2013-03-15 15:28:00,66.7,38.9,30.23,WSW,252,6.0,7.0,36,0.00,,,0.00,Wunderground v.1.13,2013-03-15 19:28:00,
2013-03-15 15:33:00,66.7,38.2,30.23,WSW,254,4.0,7.0,35,0.00,,,0.00,Wunderground v.1.13,2013-03-15 19:33:00,
2013-03-15 15:38:00,66.8,38.3,30.23,WNW,290,3.0,7.0,35,0.00,,,0.00,Wunderground v.1.13,2013-03-15 19:38:00,
2013-03-15 15:44:00,67.2,38.6,30.22,WNW,290,2.0,6.0,35,0.00,,,0.00,Wunderground v.1.13,2013-03-15 19:44:00,
2013-03-15 15:49:00,67.5,38.1,30.22,WSW,248,3.0,8.0,34,0.00,,,0.00,Wunderground v.1.13,2013-03-15 19:49:00,
2013-03-15 15:54:00,67.3,38.7,30.22,WNW,297,2.0,6.0,35,0.00,,,0.00,Wunderground v.1.13,2013-03-15 19:54:00,
2013-03-15 15:59:00,66.5,38.0,30.22,WNW,284,3.0,10.0,35,0.00,,,0.00,Wunderground v.1.13,2013-03-15 19:59:00,
2013-03-15 16:04:00,66.4,39.3,30.21,WNW,284,2.0,8.0,37,0.00,,,0.00,Wunderground v.1.13,2013-03-15 20:04:00,
2013-03-15 16:09:00,66.8,39.0,30.21,WNW,295,1.0,7.0,36,0.00,,,0.00,Wunderground v.1.13,2013-03-15 20:09:00,
2013-03-15 16:14:00,67.6,39.7,30.20,SW,227,3.0,6.0,36,0.00,,,0.00,Wunderground v.1.13,2013-03-15 20:14:00,
2013-03-15 16:19:00,67.2,38.6,30.20,SW,234,5.0,11.0,35,0.00,,,0.00,Wunderground v.1.13,2013-03-15 20:19:00,
2013-03-15 16:24:00,67.2,39.3,30.21,West,261,5.0,8.0,36,0.00,,,0.00,Wunderground v.1.13,2013-03-15 20:24:00,
2013-03-15 16:29:00,66.7,38.9,30.21,SSE,168,4.0,10.0,36,0.00,,,0.00,Wunderground v.1.13,2013-03-15 20:29:00,
2013-03-15 16:34:00,65.8,38.8,30.21,WNW,302,6.0,11.0,37,0.00,,,0.00,Wunderground v.1.13,2013-03-15 20:34:00,
2013-03-15 16:39:00,65.9,38.9,30.21,WSW,240,4.0,9.0,37,0.00,,,0.00,Wunderground v.1.13,2013-03-15 20:39:00,
2013-03-15 16:44:00,65.6,38.6,30.21,SW,228,5.0,10.0,37,0.00,,,0.00,Wunderground v.1.13,2013-03-15 20:44:00,
2013-03-15 16:49:00,65.1,38.8,30.21,WSW,252,5.0,8.0,38,0.00,,,0.00,Wunderground v.1.13,2013-03-15 20:49:00,
2013-03-15 16:54:00,65.2,38.9,30.21,SW,227,4.0,5.0,38,0.00,,,0.00,Wunderground v.1.13,2013-03-15 20:54:00,
2013-03-15 16:59:00,65.7,39.4,30.20,WSW,245,2.0,7.0,38,0.00,,,0.00,Wunderground v.1.13,2013-03-15 20:59:00,
2013-03-15 17:04:00,65.8,39.5,30.20,NNW,345,5.0,6.0,38,0.00,,,0.00,Wunderground v.1.13,2013-03-15 21:04:00,
2013-03-15 17:09:00,65.4,39.8,30.20,WNW,297,8.0,8.0,39,0.00,,,0.00,Wunderground v.1.13,2013-03-15 21:09:00,
2013-03-15 17:14:00,65.1,39.5,30.20,West,267,4.0,7.0,39,0.00,,,0.00,Wunderground v.1.13,2013-03-15 21:14:00,
2013-03-15 17:19:00,64.6,39.1,30.20,WSW,242,0.0,10.0,39,0.00,,,0.00,Wunderground v.1.13,2013-03-15 21:19:00,
2013-03-15 17:24:00,64.6,40.4,30.20,West,265,0.0,3.0,41,0.00,,,0.00,Wunderground v.1.13,2013-03-15 21:24:00,
2013-03-15 17:29:00,64.4,40.2,30.20,SW,228,3.0,8.0,41,0.00,,,0.00,Wunderground v.1.13,2013-03-15 21:29:00,
2013-03-15 17:34:00,64.2,40.0,30.20,SW,232,0.0,8.0,41,0.00,,,0.00,Wunderground v.1.13,2013-03-15 21:34:00,
2013-03-15 17:39:00,64.1,40.5,30.20,SSW,208,4.0,9.0,42,0.00,,,0.00,Wunderground v.1.13,2013-03-15 21:39:00,
2013-03-15 17:44:00,64.0,40.4,30.20,SSW,194,0.0,6.0,42,0.00,,,0.00,Wunderground v.1.13,2013-03-15 21:44:00,
2013-03-15 17:49:00,63.9,40.3,30.19,West,281,3.0,4.0,42,0.00,,,0.00,Wunderground v.1.13,2013-03-15 21:49:00,
2013-03-15 17:54:00,63.7,40.8,30.19,West,279,1.0,4.0,43,0.00,,,0.00,Wunderground v.1.13,2013-03-15 21:54:00,
2013-03-15 17:59:00,64.0,41.0,30.19,WSW,246,1.0,4.0,43,0.00,,,0.00,Wunderground v.1.13,2013-03-15 21:59:00,
2013-03-15 18:04:00,64.2,41.2,30.19,WSW,249,3.0,3.0,43,0.00,,,0.00,Wunderground v.1.13,2013-03-15 22:04:00,
2013-03-15 18:09:00,64.6,41.0,30.19,WSW,244,1.0,3.0,42,0.00,,,0.00,Wunderground v.1.13,2013-03-15 22:09:00,
2013-03-15 18:14:00,64.2,40.6,30.19,WSW,242,1.0,9.0,42,0.00,,,0.00,Wunderground v.1.13,2013-03-15 22:14:00,
2013-03-15 18:19:00,64.2,41.2,30.18,West,259,0.0,5.0,43,0.00,,,0.00,Wunderground v.1.13,2013-03-15 22:19:00,
2013-03-15 18:24:00,64.8,41.2,30.19,WSW,238,1.0,5.0,42,0.00,,,0.00,Wunderground v.1.13,2013-03-15 22:24:00,
2013-03-15 18:30:00,64.9,41.2,30.18,West,263,0.0,5.0,42,0.00,,,0.00,Wunderground v.1.13,2013-03-15 22:30:00,
2013-03-15 18:35:00,65.1,41.4,30.18,WSW,244,2.0,5.0,42,0.00,,,0.00,Wunderground v.1.13,2013-03-15 22:35:00,
2013-03-15 18:40:00,65.1,41.4,30.18,WNW,284,0.0,5.0,42,0.00,,,0.00,Wunderground v.1.13,2013-03-15 22:40:00,
2013-03-15 18:45:00,65.0,41.3,30.18,WSW,245,1.0,1.0,42,0.00,,,0.00,Wunderground v.1.13,2013-03-15 22:45:00,
2013-03-15 18:50:00,64.9,41.2,30.18,SW,217,2.0,2.0,42,0.00,,,0.00,Wunderground v.1.13,2013-03-15 22:50:00,
2013-03-15 18:55:00,65.0,41.3,30.18,South,188,0.0,0.0,42,0.00,,,0.00,Wunderground v.1.13,2013-03-15 22:55:00,
2013-03-15 19:00:00,64.9,41.9,30.18,South,190,0.0,2.0,43,0.00,,,0.00,Wunderground v.1.13,2013-03-15 23:00:00,
2013-03-15 19:06:00,64.7,41.7,30.18,SSE,167,1.0,1.0,43,0.00,,,0.00,Wunderground v.1.13,2013-03-15 23:06:00,
2013-03-15 19:11:00,64.3,41.9,30.18,SSE,157,0.0,0.0,44,0.00,,,0.00,Wunderground v.1.13,2013-03-15 23:11:00,
2013-03-15 19:19:00,63.8,41.5,30.18,WSW,237,2.0,2.0,44,0.00,,,0.00,Wunderground v.1.13,2013-03-15 23:19:00,
2013-03-15 19:24:00,63.6,41.3,30.18,SSW,192,1.0,2.0,44,0.00,,,0.00,Wunderground v.1.13,2013-03-15 23:24:00,
2013-03-15 19:30:00,63.3,41.6,30.18,SW,217,0.0,1.0,45,0.00,,,0.00,Wunderground v.1.13,2013-03-15 23:30:00,
2013-03-15 19:35:00,63.2,41.5,30.18,SSW,207,2.0,2.0,45,0.00,,,0.00,Wunderground v.1.13,2013-03-15 23:35:00,
2013-03-15 19:40:00,63.0,41.9,30.18,WSW,240,1.0,2.0,46,0.00,,,0.00,Wunderground v.1.13,2013-03-15 23:40:00,
2013-03-15 19:46:00,62.9,41.8,30.18,South,170,0.0,1.0,46,0.00,,,0.00,Wunderground v.1.13,2013-03-15 23:46:00,
2013-03-15 19:52:00,62.8,42.3,30.18,South,186,0.0,2.0,47,0.00,,,0.00,Wunderground v.1.13,2013-03-15 23:52:00,
2013-03-15 19:57:00,62.6,42.1,30.18,South,182,0.0,2.0,47,0.00,,,0.00,Wunderground v.1.13,2013-03-15 23:57:00,
2013-03-15 20:02:00,62.5,42.0,30.17,SSE,161,0.0,1.0,47,0.00,,,0.00,Wunderground v.1.13,2013-03-16 00:02:00,
2013-03-15 20:07:00,62.4,41.9,30.17,SSW,207,0.0,2.0,47,0.00,,,0.00,Wunderground v.1.13,2013-03-16 00:07:00,
2013-03-15 20:12:00,62.5,42.0,30.18,SSE,163,0.0,1.0,47,0.00,,,0.00,Wunderground v.1.13,2013-03-16 00:12:00,
2013-03-15 20:19:00,62.5,42.0,30.18,WSW,247,4.0,4.0,47,0.00,,,0.00,Wunderground v.1.13,2013-03-16 00:19:00,
2013-03-15 20:29:00,62.4,41.9,30.18,WSW,245,3.0,3.0,47,0.00,,,0.00,Wunderground v.1.13,2013-03-16 00:29:00,
2013-03-15 20:36:00,62.2,42.3,30.18,South,178,1.0,1.0,48,0.00,,,0.00,Wunderground v.1.13,2013-03-16 00:36:00,
2013-03-15 20:41:00,61.9,42.0,30.18,SW,232,0.0,0.0,48,0.00,,,0.00,Wunderground v.1.13,2013-03-16 00:41:00,
2013-03-15 20:50:00,61.7,42.3,30.18,SW,232,0.0,0.0,49,0.00,,,0.00,Wunderground v.1.13,2013-03-16 00:50:00,
2013-03-15 20:57:00,61.6,42.2,30.18,WSW,244,0.0,0.0,49,0.00,,,0.00,Wunderground v.1.13,2013-03-16 00:57:00,
2013-03-15 21:04:00,61.3,42.0,30.18,WSW,244,0.0,0.0,49,0.00,,,0.00,Wunderground v.1.13,2013-03-16 01:04:00,
2013-03-15 21:09:00,61.2,41.9,30.18,WSW,244,0.0,1.0,49,0.00,,,0.00,Wunderground v.1.13,2013-03-16 01:09:00,
2013-03-15 21:14:00,61.1,42.3,30.18,WSW,244,0.0,0.0,50,0.00,,,0.00,Wunderground v.1.13,2013-03-16 01:14:00,
2013-03-15 21:19:00,61.0,42.2,30.18,WSW,244,2.0,2.0,50,0.00,,,0.00,Wunderground v.1.13,2013-03-16 01:19:00,
2013-03-15 21:24:00,61.1,42.3,30.18,SW,236,1.0,2.0,50,0.00,,,0.00,Wunderground v.1.13,2013-03-16 01:24:00,
2013-03-15 21:29:00,61.3,42.5,30.18,SW,236,0.0,2.0,50,0.00,,,0.00,Wunderground v.1.13,2013-03-16 01:29:00,
2013-03-15 21:35:00,61.3,42.5,30.18,SW,236,0.0,0.0,50,0.00,,,0.00,Wunderground v.1.13,2013-03-16 01:35:00,
2013-03-15 21:41:00,61.1,42.3,30.17,SW,236,0.0,0.0,50,0.00,,,0.00,Wunderground v.1.13,2013-03-16 01:41:00,
2013-03-15 21:47:00,61.1,42.3,30.17,SW,236,0.0,0.0,50,0.00,,,0.00,Wunderground v.1.13,2013-03-16 01:47:00,
2013-03-15 21:52:00,60.9,42.1,30.17,SW,236,0.0,0.0,50,0.00,,,0.00,Wunderground v.1.13,2013-03-16 01:52:00,
2013-03-15 21:58:00,60.8,42.0,30.17,SW,236,0.0,0.0,50,0.00,,,0.00,Wunderground v.1.13,2013-03-16 01:58:00,
2013-03-15 22:03:00,60.6,41.8,30.17,SW,236,0.0,0.0,50,0.00,,,0.00,Wunderground v.1.13,2013-03-16 02:03:00,
2013-03-15 22:08:00,60.4,42.2,30.17,SW,236,0.0,0.0,51,0.00,,,0.00,Wunderground v.1.13,2013-03-16 02:08:00,
2013-03-15 22:15:00,59.9,42.2,30.17,SW,236,0.0,0.0,52,0.00,,,0.00,Wunderground v.1.13,2013-03-16 02:15:00,
2013-03-15 22:21:00,59.6,41.9,30.17,SW,236,0.0,0.0,52,0.00,,,0.00,Wunderground v.1.13,2013-03-16 02:21:00,
2013-03-15 22:26:00,59.4,42.3,30.17,SW,236,1.0,1.0,53,0.00,,,0.00,Wunderground v.1.13,2013-03-16 02:26:00,
2013-03-15 22:31:00,59.2,42.1,30.17,SW,236,0.0,0.0,53,0.00,,,0.00,Wunderground v.1.13,2013-03-16 02:31:00,
2013-03-15 22:38:00,58.9,42.3,30.17,SW,232,0.0,0.0,54,0.00,,,0.00,Wunderground v.1.13,2013-03-16 02:38:00,
2013-03-15 22:43:00,59.0,42.4,30.17,South,189,0.0,2.0,54,0.00,,,0.00,Wunderground v.1.13,2013-03-16 02:43:00,
2013-03-15 22:48:00,59.1,42.0,30.17,South,189,0.0,0.0,53,0.00,,,0.00,Wunderground v.1.13,2013-03-16 02:48:00,
2013-03-15 22:53:00,59.2,42.1,30.17,South,182,4.0,5.0,53,0.00,,,0.00,Wunderground v.1.13,2013-03-16 02:53:00,
2013-03-15 22:58:00,59.4,42.3,30.17,SSW,202,0.0,1.0,53,0.00,,,0.00,Wunderground v.1.13,2013-03-16 02:58:00,
2013-03-15 23:03:00,59.4,42.3,30.17,SSE,161,1.0,2.0,53,0.00,,,0.00,Wunderground v.1.13,2013-03-16 03:03:00,
2013-03-15 23:08:00,59.5,42.3,30.16,South,181,0.0,2.0,53,0.00,,,0.00,Wunderground v.1.13,2013-03-16 03:08:00,
2013-03-15 23:13:00,59.5,41.9,30.16,South,181,0.0,1.0,52,0.00,,,0.00,Wunderground v.1.13,2013-03-16 03:13:00,
2013-03-15 23:18:00,59.5,41.9,30.16,South,181,0.0,0.0,52,0.00,,,0.00,Wunderground v.1.13,2013-03-16 03:18:00,
2013-03-15 23:23:00,59.4,41.8,30.16,South,181,0.0,0.0,52,0.00,,,0.00,Wunderground v.1.13,2013-03-16 03:23:00,
2013-03-15 23:28:00,59.4,42.3,30.16,South,181,0.0,1.0,53,0.00,,,0.00,Wunderground v.1.13,2013-03-16 03:28:00,
2013-03-15 23:33:00,59.3,42.2,30.16,South,181,0.0,0.0,53,0.00,,,0.00,Wunderground v.1.13,2013-03-16 03:33:00,
2013-03-15 23:38:00,59.3,42.2,30.16,South,181,0.0,1.0,53,0.00,,,0.00,Wunderground v.1.13,2013-03-16 03:38:00,
2013-03-15 23:43:00,59.3,42.2,30.16,South,181,0.0,0.0,53,0.00,,,0.00,Wunderground v.1.13,2013-03-16 03:43:00,
2013-03-15 23:48:00,59.3,42.2,30.16,South,183,0.0,2.0,53,0.00,,,0.00,Wunderground v.1.13,2013-03-16 03:48:00,
2013-03-15 23:53:00,59.5,42.3,30.15,WSW,242,0.0,3.0,53,0.00,,,0.00,Wunderground v.1.13,2013-03-16 03:53:00,
2013-03-15 23:58:00,59.7,42.0,30.15,WSW,242,0.0,2.0,52,0.00,,,0.00,Wunderground v.1.13,2013-03-16 03:58:00,